sensor_id;sensor_type;location;lat;lon;timestamp;temperature;humidity
14006;DHT22;7078;51.542;7.314;2023-09-18T00:01:22;19.90;99.90
14006;DHT22;7078;51.542;7.314;2023-09-18T00:03:47;19.80;99.90
14006;DHT22;7078;51.542;7.314;2023-09-18T00:06:13;19.70;99.90
14006;DHT22;7078;51.542;7.314;2023-09-18T00:08:39;19.90;99.90
14006;DHT22;7078;51.542;7.314;2023-09-18T00:11:05;19.90;99.90
14006;DHT22;7078;51.542;7.314;2023-09-18T00:13:32;20.00;99.90
14006;DHT22;7078;51.542;7.314;2023-09-18T00:15:57;20.00;99.90
14006;DHT22;7078;51.542;7.314;2023-09-18T00:18:25;19.80;99.90
14006;DHT22;7078;51.542;7.314;2023-09-18T00:20:51;19.80;99.90
14006;DHT22;7078;51.542;7.314;2023-09-18T00:23:17;19.90;99.90
14006;DHT22;7078;51.542;7.314;2023-09-18T00:25:42;19.90;99.90
14006;DHT22;7078;51.542;7.314;2023-09-18T00:28:08;19.80;99.90
14006;DHT22;7078;51.542;7.314;2023-09-18T00:30:34;19.80;99.90
14006;DHT22;7078;51.542;7.314;2023-09-18T00:32:59;19.90;99.90
14006;DHT22;7078;51.542;7.314;2023-09-18T00:35:25;19.90;99.90
14006;DHT22;7078;51.542;7.314;2023-09-18T00:37:51;19.90;99.90
14006;DHT22;7078;51.542;7.314;2023-09-18T00:40:16;19.90;99.90
14006;DHT22;7078;51.542;7.314;2023-09-18T00:42:42;19.90;99.90
14006;DHT22;7078;51.542;7.314;2023-09-18T00:45:08;19.90;99.90
14006;DHT22;7078;51.542;7.314;2023-09-18T00:47:35;19.90;99.90
14006;DHT22;7078;51.542;7.314;2023-09-18T00:50:03;20.10;99.90
14006;DHT22;7078;51.542;7.314;2023-09-18T00:52:29;19.90;99.90
14006;DHT22;7078;51.542;7.314;2023-09-18T00:54:54;20.10;99.90
14006;DHT22;7078;51.542;7.314;2023-09-18T00:57:21;20.00;99.90
14006;DHT22;7078;51.542;7.314;2023-09-18T00:59:46;19.90;99.90
14006;DHT22;7078;51.542;7.314;2023-09-18T01:02:12;19.90;99.90
14006;DHT22;7078;51.542;7.314;2023-09-18T01:04:39;20.00;99.90
14006;DHT22;7078;51.542;7.314;2023-09-18T01:07:09;20.00;99.90
14006;DHT22;7078;51.542;7.314;2023-09-18T01:09:35;19.90;99.90
14006;DHT22;7078;51.542;7.314;2023-09-18T01:12:21;19.80;99.90
14006;DHT22;7078;51.542;7.314;2023-09-18T01:17:37;19.80;99.90
14006;DHT22;7078;51.542;7.314;2023-09-18T01:20:09;20.00;99.90
14006;DHT22;7078;51.542;7.314;2023-09-18T01:22:34;19.80;99.90
14006;DHT22;7078;51.542;7.314;2023-09-18T01:25:00;19.80;99.90
14006;DHT22;7078;51.542;7.314;2023-09-18T01:27:25;19.70;99.90
14006;DHT22;7078;51.542;7.314;2023-09-18T01:29:51;19.70;99.90
14006;DHT22;7078;51.542;7.314;2023-09-18T01:32:18;19.60;99.90
14006;DHT22;7078;51.542;7.314;2023-09-18T01:34:50;19.60;99.90
14006;DHT22;7078;51.542;7.314;2023-09-18T01:37:18;19.60;99.90
14006;DHT22;7078;51.542;7.314;2023-09-18T01:39:46;19.50;99.90
14006;DHT22;7078;51.542;7.314;2023-09-18T01:42:13;19.50;99.90
14006;DHT22;7078;51.542;7.314;2023-09-18T01:44:39;19.50;99.90
14006;DHT22;7078;51.542;7.314;2023-09-18T01:47:09;19.60;99.90
14006;DHT22;7078;51.542;7.314;2023-09-18T01:49:37;19.50;99.90
14006;DHT22;7078;51.542;7.314;2023-09-18T01:52:05;19.50;99.90
14006;DHT22;7078;51.542;7.314;2023-09-18T01:54:32;19.40;99.90
14006;DHT22;7078;51.542;7.314;2023-09-18T01:56:58;19.40;99.90
14006;DHT22;7078;51.542;7.314;2023-09-18T01:59:24;19.40;99.90
14006;DHT22;7078;51.542;7.314;2023-09-18T02:01:51;19.40;99.90
14006;DHT22;7078;51.542;7.314;2023-09-18T02:04:18;19.50;99.90
14006;DHT22;7078;51.542;7.314;2023-09-18T02:06:44;19.40;99.90
14006;DHT22;7078;51.542;7.314;2023-09-18T02:09:10;19.40;99.90
14006;DHT22;7078;51.542;7.314;2023-09-18T02:11:39;19.30;99.90
14006;DHT22;7078;51.542;7.314;2023-09-18T02:14:04;19.30;99.90
14006;DHT22;7078;51.542;7.314;2023-09-18T02:16:35;19.50;99.90
14006;DHT22;7078;51.542;7.314;2023-09-18T02:19:04;19.50;99.90
14006;DHT22;7078;51.542;7.314;2023-09-18T02:21:30;19.60;99.90
14006;DHT22;7078;51.542;7.314;2023-09-18T02:23:56;19.60;99.90
14006;DHT22;7078;51.542;7.314;2023-09-18T02:26:22;19.80;99.90
14006;DHT22;7078;51.542;7.314;2023-09-18T02:28:49;19.80;99.90
14006;DHT22;7078;51.542;7.314;2023-09-18T02:31:14;19.80;99.90
14006;DHT22;7078;51.542;7.314;2023-09-18T02:33:40;19.90;99.90
14006;DHT22;7078;51.542;7.314;2023-09-18T02:36:06;19.90;99.90
14006;DHT22;7078;51.542;7.314;2023-09-18T02:38:32;19.90;99.90
14006;DHT22;7078;51.542;7.314;2023-09-18T02:40:58;19.90;99.90
14006;DHT22;7078;51.542;7.314;2023-09-18T02:43:24;19.90;99.90
14006;DHT22;7078;51.542;7.314;2023-09-18T02:45:50;20.20;99.90
14006;DHT22;7078;51.542;7.314;2023-09-18T02:48:16;20.00;99.90
14006;DHT22;7078;51.542;7.314;2023-09-18T02:50:42;20.00;99.90
14006;DHT22;7078;51.542;7.314;2023-09-18T02:53:16;20.00;99.90
14006;DHT22;7078;51.542;7.314;2023-09-18T02:55:42;20.00;99.90
14006;DHT22;7078;51.542;7.314;2023-09-18T02:58:08;20.00;99.90
14006;DHT22;7078;51.542;7.314;2023-09-18T03:00:40;19.90;99.90
14006;DHT22;7078;51.542;7.314;2023-09-18T03:03:06;19.90;99.90
14006;DHT22;7078;51.542;7.314;2023-09-18T03:05:32;20.10;99.90
14006;DHT22;7078;51.542;7.314;2023-09-18T03:07:57;20.10;99.90
14006;DHT22;7078;51.542;7.314;2023-09-18T03:10:23;20.00;99.90
14006;DHT22;7078;51.542;7.314;2023-09-18T03:12:48;20.00;99.90
14006;DHT22;7078;51.542;7.314;2023-09-18T03:15:14;20.20;99.90
14006;DHT22;7078;51.542;7.314;2023-09-18T03:17:40;19.90;99.90
14006;DHT22;7078;51.542;7.314;2023-09-18T03:20:08;19.90;99.90
14006;DHT22;7078;51.542;7.314;2023-09-18T03:22:34;20.10;99.90
14006;DHT22;7078;51.542;7.314;2023-09-18T03:25:00;20.10;99.90
14006;DHT22;7078;51.542;7.314;2023-09-18T03:27:25;20.20;99.90
14006;DHT22;7078;51.542;7.314;2023-09-18T03:29:54;20.20;99.90
14006;DHT22;7078;51.542;7.314;2023-09-18T03:32:20;20.30;99.90
14006;DHT22;7078;51.542;7.314;2023-09-18T03:34:46;20.30;99.90
14006;DHT22;7078;51.542;7.314;2023-09-18T03:37:11;20.40;99.90
14006;DHT22;7078;51.542;7.314;2023-09-18T03:39:37;20.50;99.90
14006;DHT22;7078;51.542;7.314;2023-09-18T03:42:03;20.70;99.90
14006;DHT22;7078;51.542;7.314;2023-09-18T03:44:28;20.90;99.90
14006;DHT22;7078;51.542;7.314;2023-09-18T03:46:54;21.00;99.90
14006;DHT22;7078;51.542;7.314;2023-09-18T03:49:20;21.00;99.90
14006;DHT22;7078;51.542;7.314;2023-09-18T03:51:46;21.00;99.90
14006;DHT22;7078;51.542;7.314;2023-09-18T03:54:11;21.20;99.90
14006;DHT22;7078;51.542;7.314;2023-09-18T03:56:37;21.30;99.90
14006;DHT22;7078;51.542;7.314;2023-09-18T03:59:02;21.30;99.90
14006;DHT22;7078;51.542;7.314;2023-09-18T04:01:30;21.30;99.90
14006;DHT22;7078;51.542;7.314;2023-09-18T04:03:55;21.30;99.90
14006;DHT22;7078;51.542;7.314;2023-09-18T04:06:21;21.60;99.90
14006;DHT22;7078;51.542;7.314;2023-09-18T04:08:49;21.40;99.90
14006;DHT22;7078;51.542;7.314;2023-09-18T04:11:15;21.30;99.90
14006;DHT22;7078;51.542;7.314;2023-09-18T04:13:41;21.40;99.90
14006;DHT22;7078;51.542;7.314;2023-09-18T04:16:06;21.30;99.90
14006;DHT22;7078;51.542;7.314;2023-09-18T04:18:33;21.40;99.90
14006;DHT22;7078;51.542;7.314;2023-09-18T04:20:58;21.40;99.90
14006;DHT22;7078;51.542;7.314;2023-09-18T04:23:26;21.30;99.90
14006;DHT22;7078;51.542;7.314;2023-09-18T04:25:53;21.40;99.90
14006;DHT22;7078;51.542;7.314;2023-09-18T04:28:21;21.30;99.90
14006;DHT22;7078;51.542;7.314;2023-09-18T04:30:48;21.20;99.90
14006;DHT22;7078;51.542;7.314;2023-09-18T04:33:14;21.10;99.90
14006;DHT22;7078;51.542;7.314;2023-09-18T04:35:40;21.20;99.90
14006;DHT22;7078;51.542;7.314;2023-09-18T04:38:09;21.20;99.90
14006;DHT22;7078;51.542;7.314;2023-09-18T04:40:36;21.20;99.90
14006;DHT22;7078;51.542;7.314;2023-09-18T04:43:04;21.20;99.90
14006;DHT22;7078;51.542;7.314;2023-09-18T04:45:30;21.20;99.90
14006;DHT22;7078;51.542;7.314;2023-09-18T04:47:56;21.20;99.90
14006;DHT22;7078;51.542;7.314;2023-09-18T04:50:22;21.20;99.90
14006;DHT22;7078;51.542;7.314;2023-09-18T04:52:48;21.30;99.90
14006;DHT22;7078;51.542;7.314;2023-09-18T04:55:16;21.40;99.90
14006;DHT22;7078;51.542;7.314;2023-09-18T04:57:41;21.30;99.90
14006;DHT22;7078;51.542;7.314;2023-09-18T05:00:07;21.30;99.90
14006;DHT22;7078;51.542;7.314;2023-09-18T05:02:34;21.30;99.90
14006;DHT22;7078;51.542;7.314;2023-09-18T05:05:00;21.20;99.90
14006;DHT22;7078;51.542;7.314;2023-09-18T05:07:26;21.10;99.90
14006;DHT22;7078;51.542;7.314;2023-09-18T05:09:52;21.20;99.90
14006;DHT22;7078;51.542;7.314;2023-09-18T05:12:18;21.10;99.90
14006;DHT22;7078;51.542;7.314;2023-09-18T05:14:44;21.00;99.90
14006;DHT22;7078;51.542;7.314;2023-09-18T05:17:15;21.10;99.90
14006;DHT22;7078;51.542;7.314;2023-09-18T05:19:40;21.10;99.90
14006;DHT22;7078;51.542;7.314;2023-09-18T05:22:07;20.90;99.90
14006;DHT22;7078;51.542;7.314;2023-09-18T05:24:33;20.70;99.90
14006;DHT22;7078;51.542;7.314;2023-09-18T05:26:58;20.90;99.90
14006;DHT22;7078;51.542;7.314;2023-09-18T05:29:24;20.80;99.90
14006;DHT22;7078;51.542;7.314;2023-09-18T05:31:50;20.80;99.90
14006;DHT22;7078;51.542;7.314;2023-09-18T05:34:15;20.80;99.90
14006;DHT22;7078;51.542;7.314;2023-09-18T05:36:41;20.70;99.90
14006;DHT22;7078;51.542;7.314;2023-09-18T05:39:06;20.70;99.90
14006;DHT22;7078;51.542;7.314;2023-09-18T05:41:37;20.60;99.90
14006;DHT22;7078;51.542;7.314;2023-09-18T05:44:02;20.50;99.90
14006;DHT22;7078;51.542;7.314;2023-09-18T05:46:30;20.60;99.90
14006;DHT22;7078;51.542;7.314;2023-09-18T05:48:56;20.60;99.90
14006;DHT22;7078;51.542;7.314;2023-09-18T05:51:25;20.50;99.90
14006;DHT22;7078;51.542;7.314;2023-09-18T05:53:50;20.50;99.90
14006;DHT22;7078;51.542;7.314;2023-09-18T05:56:16;20.50;99.90
14006;DHT22;7078;51.542;7.314;2023-09-18T05:58:43;20.50;99.90
14006;DHT22;7078;51.542;7.314;2023-09-18T06:01:08;20.40;99.90
14006;DHT22;7078;51.542;7.314;2023-09-18T06:03:34;20.50;99.90
14006;DHT22;7078;51.542;7.314;2023-09-18T06:06:07;20.50;99.90
14006;DHT22;7078;51.542;7.314;2023-09-18T06:08:34;20.60;99.90
14006;DHT22;7078;51.542;7.314;2023-09-18T06:10:59;20.40;99.90
14006;DHT22;7078;51.542;7.314;2023-09-18T06:13:25;20.40;99.90
14006;DHT22;7078;51.542;7.314;2023-09-18T06:15:52;20.50;99.90
14006;DHT22;7078;51.542;7.314;2023-09-18T06:18:20;20.60;99.90
14006;DHT22;7078;51.542;7.314;2023-09-18T06:20:49;20.60;99.90
14006;DHT22;7078;51.542;7.314;2023-09-18T06:23:14;20.60;99.90
14006;DHT22;7078;51.542;7.314;2023-09-18T06:25:40;20.60;99.90
14006;DHT22;7078;51.542;7.314;2023-09-18T06:28:06;20.80;99.90
14006;DHT22;7078;51.542;7.314;2023-09-18T06:30:32;20.40;99.90
14006;DHT22;7078;51.542;7.314;2023-09-18T06:32:59;20.60;99.90
14006;DHT22;7078;51.542;7.314;2023-09-18T06:35:25;20.70;99.90
14006;DHT22;7078;51.542;7.314;2023-09-18T06:37:50;20.70;99.90
14006;DHT22;7078;51.542;7.314;2023-09-18T06:40:16;20.60;99.90
14006;DHT22;7078;51.542;7.314;2023-09-18T06:42:42;20.60;99.90
14006;DHT22;7078;51.542;7.314;2023-09-18T06:45:08;20.40;99.90
14006;DHT22;7078;51.542;7.314;2023-09-18T06:47:34;20.70;99.90
14006;DHT22;7078;51.542;7.314;2023-09-18T06:50:00;20.60;99.90
14006;DHT22;7078;51.542;7.314;2023-09-18T06:52:26;20.70;99.90
14006;DHT22;7078;51.542;7.314;2023-09-18T06:54:53;20.70;99.90
14006;DHT22;7078;51.542;7.314;2023-09-18T06:57:19;20.80;99.90
14006;DHT22;7078;51.542;7.314;2023-09-18T06:59:46;20.90;99.90
14006;DHT22;7078;51.542;7.314;2023-09-18T07:02:12;20.80;99.90
14006;DHT22;7078;51.542;7.314;2023-09-18T07:04:41;20.70;99.90
14006;DHT22;7078;51.542;7.314;2023-09-18T07:07:11;20.70;99.90
14006;DHT22;7078;51.542;7.314;2023-09-18T07:09:38;20.80;99.90
14006;DHT22;7078;51.542;7.314;2023-09-18T07:12:04;20.90;99.90
14006;DHT22;7078;51.542;7.314;2023-09-18T07:14:29;20.90;99.90
14006;DHT22;7078;51.542;7.314;2023-09-18T07:16:56;20.80;99.90
14006;DHT22;7078;51.542;7.314;2023-09-18T07:19:21;20.90;99.90
14006;DHT22;7078;51.542;7.314;2023-09-18T07:21:47;20.90;99.90
14006;DHT22;7078;51.542;7.314;2023-09-18T07:24:13;20.90;99.90
14006;DHT22;7078;51.542;7.314;2023-09-18T07:26:43;20.90;99.90
14006;DHT22;7078;51.542;7.314;2023-09-18T07:29:09;21.00;99.90
14006;DHT22;7078;51.542;7.314;2023-09-18T07:31:34;20.90;99.90
14006;DHT22;7078;51.542;7.314;2023-09-18T07:34:00;21.00;99.90
14006;DHT22;7078;51.542;7.314;2023-09-18T07:36:26;21.10;99.90
14006;DHT22;7078;51.542;7.314;2023-09-18T07:38:51;21.20;99.90
14006;DHT22;7078;51.542;7.314;2023-09-18T07:41:18;21.30;99.90
14006;DHT22;7078;51.542;7.314;2023-09-18T07:43:45;21.30;99.90
14006;DHT22;7078;51.542;7.314;2023-09-18T07:46:10;21.40;99.90
14006;DHT22;7078;51.542;7.314;2023-09-18T07:48:36;21.60;99.90
14006;DHT22;7078;51.542;7.314;2023-09-18T07:51:03;21.70;99.90
14006;DHT22;7078;51.542;7.314;2023-09-18T07:53:28;21.80;99.90
14006;DHT22;7078;51.542;7.314;2023-09-18T07:55:57;22.00;99.90
14006;DHT22;7078;51.542;7.314;2023-09-18T07:58:27;21.90;99.90
14006;DHT22;7078;51.542;7.314;2023-09-18T08:00:55;22.00;99.90
14006;DHT22;7078;51.542;7.314;2023-09-18T08:03:20;22.00;99.90
14006;DHT22;7078;51.542;7.314;2023-09-18T08:05:50;22.00;99.90
14006;DHT22;7078;51.542;7.314;2023-09-18T08:08:18;21.80;99.90
14006;DHT22;7078;51.542;7.314;2023-09-18T08:10:46;21.90;99.90
14006;DHT22;7078;51.542;7.314;2023-09-18T08:13:11;21.80;99.90
14006;DHT22;7078;51.542;7.314;2023-09-18T08:15:37;21.80;99.90
14006;DHT22;7078;51.542;7.314;2023-09-18T08:18:03;21.80;99.90
14006;DHT22;7078;51.542;7.314;2023-09-18T08:20:29;21.80;99.90
14006;DHT22;7078;51.542;7.314;2023-09-18T08:22:54;21.80;99.90
14006;DHT22;7078;51.542;7.314;2023-09-18T08:25:20;22.00;99.90
14006;DHT22;7078;51.542;7.314;2023-09-18T08:27:45;21.90;99.90
14006;DHT22;7078;51.542;7.314;2023-09-18T08:30:13;21.80;99.90
14006;DHT22;7078;51.542;7.314;2023-09-18T08:32:39;21.70;99.90
14006;DHT22;7078;51.542;7.314;2023-09-18T08:35:06;21.80;99.90
14006;DHT22;7078;51.542;7.314;2023-09-18T08:37:32;21.50;99.90
14006;DHT22;7078;51.542;7.314;2023-09-18T08:39:57;21.50;99.90
14006;DHT22;7078;51.542;7.314;2023-09-18T08:42:29;21.50;99.90
14006;DHT22;7078;51.542;7.314;2023-09-18T08:44:57;21.40;99.90
14006;DHT22;7078;51.542;7.314;2023-09-18T08:47:24;21.30;99.90
14006;DHT22;7078;51.542;7.314;2023-09-18T08:49:50;21.40;99.90
14006;DHT22;7078;51.542;7.314;2023-09-18T08:52:18;21.30;99.90
14006;DHT22;7078;51.542;7.314;2023-09-18T08:54:44;21.40;99.90
14006;DHT22;7078;51.542;7.314;2023-09-18T08:57:11;21.50;99.90
14006;DHT22;7078;51.542;7.314;2023-09-18T08:59:38;21.50;99.90
14006;DHT22;7078;51.542;7.314;2023-09-18T09:02:04;21.60;99.90
14006;DHT22;7078;51.542;7.314;2023-09-18T09:04:30;21.70;99.90
14006;DHT22;7078;51.542;7.314;2023-09-18T09:06:56;21.70;99.90
14006;DHT22;7078;51.542;7.314;2023-09-18T09:09:25;22.00;99.90
14006;DHT22;7078;51.542;7.314;2023-09-18T09:11:52;22.00;99.90
14006;DHT22;7078;51.542;7.314;2023-09-18T09:14:18;21.90;99.90
14006;DHT22;7078;51.542;7.314;2023-09-18T09:16:51;21.90;99.90
14006;DHT22;7078;51.542;7.314;2023-09-18T09:19:17;21.90;99.90
14006;DHT22;7078;51.542;7.314;2023-09-18T09:21:44;21.80;99.90
14006;DHT22;7078;51.542;7.314;2023-09-18T09:24:10;21.80;99.90
14006;DHT22;7078;51.542;7.314;2023-09-18T09:26:40;21.80;99.90
14006;DHT22;7078;51.542;7.314;2023-09-18T09:29:19;21.90;99.90
14006;DHT22;7078;51.542;7.314;2023-09-18T09:31:46;22.10;99.90
14006;DHT22;7078;51.542;7.314;2023-09-18T09:34:12;22.00;99.90
14006;DHT22;7078;51.542;7.314;2023-09-18T09:36:56;22.00;99.90
14006;DHT22;7078;51.542;7.314;2023-09-18T09:39:22;22.10;99.90
14006;DHT22;7078;51.542;7.314;2023-09-18T09:41:51;22.00;99.90
14006;DHT22;7078;51.542;7.314;2023-09-18T09:44:17;22.10;99.90
14006;DHT22;7078;51.542;7.314;2023-09-18T09:46:47;22.10;99.90
14006;DHT22;7078;51.542;7.314;2023-09-18T09:49:14;22.10;99.90
14006;DHT22;7078;51.542;7.314;2023-09-18T09:51:41;22.20;99.90
14006;DHT22;7078;51.542;7.314;2023-09-18T09:54:07;22.20;99.90
14006;DHT22;7078;51.542;7.314;2023-09-18T09:56:44;22.20;99.90
14006;DHT22;7078;51.542;7.314;2023-09-18T09:59:11;22.30;99.90
14006;DHT22;7078;51.542;7.314;2023-09-18T10:01:38;22.30;99.90
14006;DHT22;7078;51.542;7.314;2023-09-18T10:04:14;22.20;99.90
14006;DHT22;7078;51.542;7.314;2023-09-18T10:06:44;22.40;99.90
14006;DHT22;7078;51.542;7.314;2023-09-18T10:09:13;22.60;99.90
14006;DHT22;7078;51.542;7.314;2023-09-18T10:11:45;22.60;99.90
14006;DHT22;7078;51.542;7.314;2023-09-18T10:14:32;22.70;99.90
14006;DHT22;7078;51.542;7.314;2023-09-18T10:17:09;22.60;99.90
14006;DHT22;7078;51.542;7.314;2023-09-18T10:20:04;22.60;99.90
14006;DHT22;7078;51.542;7.314;2023-09-18T10:22:38;22.60;99.90
14006;DHT22;7078;51.542;7.314;2023-09-18T10:25:15;22.60;99.90
14006;DHT22;7078;51.542;7.314;2023-09-18T10:27:45;22.50;99.90
14006;DHT22;7078;51.542;7.314;2023-09-18T10:30:12;22.40;99.90
14006;DHT22;7078;51.542;7.314;2023-09-18T10:32:40;22.50;99.90
14006;DHT22;7078;51.542;7.314;2023-09-18T10:35:07;22.60;99.90
14006;DHT22;7078;51.542;7.314;2023-09-18T10:37:33;22.70;99.90
14006;DHT22;7078;51.542;7.314;2023-09-18T10:40:00;22.70;99.90
14006;DHT22;7078;51.542;7.314;2023-09-18T10:42:27;22.90;99.90
14006;DHT22;7078;51.542;7.314;2023-09-18T10:44:53;22.70;99.90
14006;DHT22;7078;51.542;7.314;2023-09-18T10:47:19;22.70;99.90
14006;DHT22;7078;51.542;7.314;2023-09-18T10:49:46;22.80;99.90
14006;DHT22;7078;51.542;7.314;2023-09-18T10:52:12;22.90;99.90
14006;DHT22;7078;51.542;7.314;2023-09-18T10:54:38;23.00;99.90
14006;DHT22;7078;51.542;7.314;2023-09-18T10:57:05;23.20;99.90
14006;DHT22;7078;51.542;7.314;2023-09-18T10:59:30;23.20;99.90
14006;DHT22;7078;51.542;7.314;2023-09-18T11:02:02;23.50;99.90
14006;DHT22;7078;51.542;7.314;2023-09-18T11:04:30;23.70;99.90
14006;DHT22;7078;51.542;7.314;2023-09-18T11:09:25;23.70;99.90
14006;DHT22;7078;51.542;7.314;2023-09-18T11:17:38;23.70;99.90
14006;DHT22;7078;51.542;7.314;2023-09-18T11:25:45;23.90;99.90
14006;DHT22;7078;51.542;7.314;2023-09-18T11:28:23;23.90;99.90
14006;DHT22;7078;51.542;7.314;2023-09-18T11:30:54;24.00;99.90
14006;DHT22;7078;51.542;7.314;2023-09-18T11:33:34;24.00;99.90
14006;DHT22;7078;51.542;7.314;2023-09-18T11:36:13;24.20;99.90
14006;DHT22;7078;51.542;7.314;2023-09-18T11:38:55;23.90;99.90
14006;DHT22;7078;51.542;7.314;2023-09-18T11:41:26;24.10;99.90
14006;DHT22;7078;51.542;7.314;2023-09-18T11:44:05;24.10;99.90
14006;DHT22;7078;51.542;7.314;2023-09-18T11:46:50;24.20;99.90
14006;DHT22;7078;51.542;7.314;2023-09-18T11:49:24;24.10;98.20
14006;DHT22;7078;51.542;7.314;2023-09-18T11:51:54;24.10;98.80
14006;DHT22;7078;51.542;7.314;2023-09-18T11:54:20;24.20;99.90
14006;DHT22;7078;51.542;7.314;2023-09-18T11:56:47;24.50;97.80
14006;DHT22;7078;51.542;7.314;2023-09-18T11:59:12;24.50;97.00
14006;DHT22;7078;51.542;7.314;2023-09-18T12:01:39;24.50;96.60
14006;DHT22;7078;51.542;7.314;2023-09-18T12:04:05;24.50;96.80
14006;DHT22;7078;51.542;7.314;2023-09-18T12:06:35;24.50;95.40
14006;DHT22;7078;51.542;7.314;2023-09-18T12:09:01;24.30;96.10
14006;DHT22;7078;51.542;7.314;2023-09-18T12:11:28;24.10;97.60
14006;DHT22;7078;51.542;7.314;2023-09-18T12:13:54;24.00;99.30
14006;DHT22;7078;51.542;7.314;2023-09-18T12:16:20;23.90;99.90
14006;DHT22;7078;51.542;7.314;2023-09-18T12:18:55;23.90;99.90
14006;DHT22;7078;51.542;7.314;2023-09-18T12:21:22;23.80;99.90
14006;DHT22;7078;51.542;7.314;2023-09-18T12:23:48;23.70;99.90
14006;DHT22;7078;51.542;7.314;2023-09-18T12:26:15;23.60;99.90
14006;DHT22;7078;51.542;7.314;2023-09-18T12:28:44;23.70;99.90
14006;DHT22;7078;51.542;7.314;2023-09-18T12:31:13;23.60;99.90
14006;DHT22;7078;51.542;7.314;2023-09-18T12:33:40;23.60;99.90
14006;DHT22;7078;51.542;7.314;2023-09-18T12:36:08;23.40;99.90
14006;DHT22;7078;51.542;7.314;2023-09-18T12:38:34;23.40;99.90
14006;DHT22;7078;51.542;7.314;2023-09-18T12:41:02;23.50;99.90
14006;DHT22;7078;51.542;7.314;2023-09-18T12:43:37;23.80;99.90
14006;DHT22;7078;51.542;7.314;2023-09-18T12:46:05;24.20;99.90
14006;DHT22;7078;51.542;7.314;2023-09-18T12:48:31;24.60;99.90
14006;DHT22;7078;51.542;7.314;2023-09-18T12:51:03;24.90;98.00
14006;DHT22;7078;51.542;7.314;2023-09-18T12:53:29;24.90;95.50
14006;DHT22;7078;51.542;7.314;2023-09-18T12:55:54;24.80;96.70
14006;DHT22;7078;51.542;7.314;2023-09-18T12:58:29;24.60;96.70
14006;DHT22;7078;51.542;7.314;2023-09-18T13:00:55;24.60;99.90
14006;DHT22;7078;51.542;7.314;2023-09-18T13:03:20;24.40;97.60
14006;DHT22;7078;51.542;7.314;2023-09-18T13:05:46;24.30;97.70
14006;DHT22;7078;51.542;7.314;2023-09-18T13:08:13;24.20;97.30
14006;DHT22;7078;51.542;7.314;2023-09-18T13:10:48;24.20;97.50
14006;DHT22;7078;51.542;7.314;2023-09-18T13:13:22;24.20;99.20
14006;DHT22;7078;51.542;7.314;2023-09-18T13:15:48;24.30;99.90
14006;DHT22;7078;51.542;7.314;2023-09-18T13:18:15;24.50;95.80
14006;DHT22;7078;51.542;7.314;2023-09-18T13:20:41;24.60;93.90
14006;DHT22;7078;51.542;7.314;2023-09-18T13:23:08;24.70;92.70
14006;DHT22;7078;51.542;7.314;2023-09-18T13:25:39;24.80;92.10
14006;DHT22;7078;51.542;7.314;2023-09-18T13:28:08;24.90;89.50
14006;DHT22;7078;51.542;7.314;2023-09-18T13:30:39;24.80;90.60
14006;DHT22;7078;51.542;7.314;2023-09-18T13:33:10;24.70;90.00
14006;DHT22;7078;51.542;7.314;2023-09-18T13:35:38;24.60;91.20
14006;DHT22;7078;51.542;7.314;2023-09-18T13:38:05;24.70;90.90
14006;DHT22;7078;51.542;7.314;2023-09-18T13:40:32;24.90;89.70
14006;DHT22;7078;51.542;7.314;2023-09-18T13:42:59;25.00;87.00
14006;DHT22;7078;51.542;7.314;2023-09-18T13:45:24;25.10;84.80
14006;DHT22;7078;51.542;7.314;2023-09-18T13:47:50;25.10;83.60
14006;DHT22;7078;51.542;7.314;2023-09-18T13:50:16;25.00;83.10
14006;DHT22;7078;51.542;7.314;2023-09-18T13:52:41;24.90;82.70
14006;DHT22;7078;51.542;7.314;2023-09-18T13:55:07;24.90;82.60
14006;DHT22;7078;51.542;7.314;2023-09-18T13:57:34;25.10;82.30
14006;DHT22;7078;51.542;7.314;2023-09-18T14:00:01;25.20;81.50
14006;DHT22;7078;51.542;7.314;2023-09-18T14:02:30;25.30;83.10
14006;DHT22;7078;51.542;7.314;2023-09-18T14:04:56;25.30;83.50
14006;DHT22;7078;51.542;7.314;2023-09-18T14:07:22;25.30;78.50
14006;DHT22;7078;51.542;7.314;2023-09-18T14:09:47;25.20;79.50
14006;DHT22;7078;51.542;7.314;2023-09-18T14:12:13;25.10;78.00
14006;DHT22;7078;51.542;7.314;2023-09-18T14:14:43;25.00;78.10
14006;DHT22;7078;51.542;7.314;2023-09-18T14:17:10;25.00;78.80
14006;DHT22;7078;51.542;7.314;2023-09-18T14:19:36;25.10;79.40
14006;DHT22;7078;51.542;7.314;2023-09-18T14:22:07;25.10;80.10
14006;DHT22;7078;51.542;7.314;2023-09-18T14:24:33;25.00;78.30
14006;DHT22;7078;51.542;7.314;2023-09-18T14:27:03;24.90;79.10
14006;DHT22;7078;51.542;7.314;2023-09-18T14:29:29;24.90;78.20
14006;DHT22;7078;51.542;7.314;2023-09-18T14:32:01;25.00;78.00
14006;DHT22;7078;51.542;7.314;2023-09-18T14:34:27;25.10;76.50
14006;DHT22;7078;51.542;7.314;2023-09-18T14:36:53;25.10;75.30
14006;DHT22;7078;51.542;7.314;2023-09-18T14:39:18;25.10;74.70
14006;DHT22;7078;51.542;7.314;2023-09-18T14:41:44;25.10;75.10
14006;DHT22;7078;51.542;7.314;2023-09-18T14:44:10;25.10;75.80
14006;DHT22;7078;51.542;7.314;2023-09-18T14:46:36;25.10;75.10
14006;DHT22;7078;51.542;7.314;2023-09-18T14:49:05;25.10;74.50
14006;DHT22;7078;51.542;7.314;2023-09-18T14:51:33;25.10;75.80
14006;DHT22;7078;51.542;7.314;2023-09-18T14:53:59;25.20;75.90
14006;DHT22;7078;51.542;7.314;2023-09-18T14:56:26;25.20;76.80
14006;DHT22;7078;51.542;7.314;2023-09-18T14:58:51;25.20;76.60
14006;DHT22;7078;51.542;7.314;2023-09-18T15:01:18;25.00;74.90
14006;DHT22;7078;51.542;7.314;2023-09-18T15:03:43;24.90;73.60
14006;DHT22;7078;51.542;7.314;2023-09-18T15:06:10;24.80;74.90
14006;DHT22;7078;51.542;7.314;2023-09-18T15:08:36;24.80;75.70
14006;DHT22;7078;51.542;7.314;2023-09-18T15:11:01;24.90;74.20
14006;DHT22;7078;51.542;7.314;2023-09-18T15:13:29;25.10;72.00
14006;DHT22;7078;51.542;7.314;2023-09-18T15:15:55;25.20;72.00
14006;DHT22;7078;51.542;7.314;2023-09-18T15:18:21;25.10;70.60
14006;DHT22;7078;51.542;7.314;2023-09-18T15:20:47;25.20;70.90
14006;DHT22;7078;51.542;7.314;2023-09-18T15:23:13;25.20;69.20
14006;DHT22;7078;51.542;7.314;2023-09-18T15:25:39;25.20;70.30
14006;DHT22;7078;51.542;7.314;2023-09-18T15:28:07;25.20;70.50
14006;DHT22;7078;51.542;7.314;2023-09-18T15:30:33;25.20;70.80
14006;DHT22;7078;51.542;7.314;2023-09-18T15:32:58;25.30;70.00
14006;DHT22;7078;51.542;7.314;2023-09-18T15:35:25;25.30;69.10
14006;DHT22;7078;51.542;7.314;2023-09-18T15:37:51;25.30;68.80
14006;DHT22;7078;51.542;7.314;2023-09-18T15:40:18;25.30;69.00
14006;DHT22;7078;51.542;7.314;2023-09-18T15:42:45;25.40;68.60
14006;DHT22;7078;51.542;7.314;2023-09-18T15:45:11;25.30;67.80
14006;DHT22;7078;51.542;7.314;2023-09-18T15:47:40;25.20;68.60
14006;DHT22;7078;51.542;7.314;2023-09-18T15:50:07;25.00;69.60
14006;DHT22;7078;51.542;7.314;2023-09-18T15:52:34;24.80;70.60
14006;DHT22;7078;51.542;7.314;2023-09-18T15:55:00;24.60;72.40
14006;DHT22;7078;51.542;7.314;2023-09-18T15:57:26;24.60;73.60
14006;DHT22;7078;51.542;7.314;2023-09-18T15:59:54;24.70;72.60
14006;DHT22;7078;51.542;7.314;2023-09-18T16:02:21;25.10;72.90